This is the latest recevied weather packets stored in our database for station/object WX Beacon. If no packets are shown the sender has not sent any weather packets the latest 10 day(s).
| Time | Temp. | Humidity | Pressure | Rain* | Wind** | Luminosity | Snow |
|---|---|---|---|---|---|---|---|
| 1777736253 | 17.78° C | 66% | 1021.3 hPa | 0 mm | - | - | - |
| 1777735652 | 17.78° C | 66% | 1021.3 hPa | 0 mm | - | - | - |
| 1777735052 | 17.78° C | 66% | 1021.3 hPa | 0 mm | - | - | - |
| 1777734452 | 17.78° C | 66% | 1021.3 hPa | 0 mm | - | - | - |
| 1777733852 | 15° C | 80% | 1020.9 hPa | 0 mm | - | - | - |
| 1777733252 | 15° C | 80% | 1020.9 hPa | 0 mm | - | - | - |
| 1777732052 | 15° C | 80% | 1020.9 hPa | 0 mm | - | - | - |
| 1777731452 | 15° C | 80% | 1020.9 hPa | 0 mm | - | - | - |
| 1777729652 | 12.22° C | 85% | 1020.3 hPa | 0 mm | - | - | - |
| 1777728452 | 12.22° C | 85% | 1020.3 hPa | 0 mm | - | - | - |
| 1777727853 | 12.22° C | 85% | 1020.3 hPa | 0 mm | - | - | - |
| 1777726652 | 10.56° C | 86% | 1019.5 hPa | 0 mm | - | - | - |
| 1777726053 | 10.56° C | 86% | 1019.5 hPa | 0 mm | - | - | - |
| 1777724852 | 10.56° C | 86% | 1019.5 hPa | 0 mm | - | - | - |
| 1777723052 | 10° C | 88% | 1018.5 hPa | 0 mm | - | - | - |
| 1777721852 | 10° C | 88% | 1018.5 hPa | 0 mm | - | - | - |
| 1777721251 | 10° C | 88% | 1018.5 hPa | 0 mm | - | - | - |
| 1777720652 | 10° C | 88% | 1018.5 hPa | 0 mm | - | - | - |
| 1777720054 | 10° C | 88% | 1018.5 hPa | 0 mm | - | - | - |
| 1777719453 | 10.56° C | 87% | 1018.6 hPa | 0 mm | - | - | - |
| 1777718851 | 10.56° C | 87% | 1018.6 hPa | 0 mm | - | - | - |
| 1777718252 | 10.56° C | 87% | 1018.6 hPa | 0 mm | - | - | - |
| 1777717654 | 10.56° C | 87% | 1018.6 hPa | 0 mm | - | - | - |
| 1777717052 | 10.56° C | 87% | 1018.6 hPa | 0 mm | - | - | - |
| 1777716452 | 10.56° C | 87% | 1018.6 hPa | 0 mm | - | - | - |
* Rain latest hour (hover to see other rain measurements)
** Current wind speed in m/s (hover to see current wind gust speed)